createdAt,value
2023-03-29T00:00:16.852Z,2.35
2023-03-29T00:02:48.806Z,1.60
2023-03-29T00:05:25.523Z,1.95
2023-03-29T00:07:54.406Z,2.25
2023-03-29T00:10:24.208Z,2.10
2023-03-29T00:12:52.734Z,1.97
2023-03-29T06:24:16.557Z,2.78
2023-03-29T06:26:45.205Z,2.20
2023-03-29T06:29:12.752Z,3.03
2023-03-29T06:31:40.984Z,3.13
2023-03-29T06:34:08.434Z,3.08
2023-03-29T06:36:35.813Z,3.20
2023-03-29T06:39:04.095Z,3.85
2023-03-29T06:41:31.680Z,4.68
2023-03-29T06:43:59.110Z,3.50
2023-03-29T06:46:27.211Z,3.75
2023-03-29T06:48:54.571Z,3.45
2023-03-29T06:51:23.554Z,3.15
2023-03-29T06:53:50.976Z,3.63
2023-03-29T06:56:18.365Z,3.92
2023-03-29T06:58:47.076Z,3.75
2023-03-29T07:01:14.510Z,4.10
2023-03-29T07:03:44.776Z,4.03
2023-03-29T07:06:15.488Z,3.80
2023-03-29T07:08:47.525Z,4.03
2023-03-29T07:11:17.944Z,4.13
2023-03-29T07:13:46.294Z,4.30
2023-03-29T07:16:14.293Z,4.25
2023-03-29T07:18:44.343Z,4.65
2023-03-29T07:21:13.363Z,3.97
2023-03-29T07:23:41.103Z,4.13
2023-03-29T07:26:09.946Z,4.22
2023-03-29T07:28:39.549Z,3.97
2023-03-29T07:31:11.726Z,3.75
2023-03-29T07:33:39.952Z,3.63
2023-03-29T07:36:08.630Z,3.25
2023-03-29T07:38:37.005Z,2.80
2023-03-29T07:41:08.088Z,3.53
2023-03-29T07:43:35.852Z,2.90
2023-03-29T07:46:07.214Z,2.90
2023-03-29T07:48:37.212Z,2.63
2023-03-29T07:51:06.422Z,2.80
2023-03-29T07:53:33.832Z,2.65
2023-03-29T07:56:01.824Z,3.70
2023-03-29T07:58:29.718Z,3.53
2023-03-29T08:01:00.666Z,3.65
2023-03-29T08:03:28.979Z,4.05
2023-03-29T08:05:57.002Z,3.38
2023-03-29T08:08:24.513Z,3.65
2023-03-29T08:10:52.930Z,3.42
2023-03-29T08:13:20.514Z,3.42
2023-03-29T08:15:48.941Z,4.10
2023-03-29T08:18:16.431Z,3.47
2023-03-29T08:20:44.377Z,4.32
2023-03-29T08:23:11.897Z,3.78
2023-03-29T08:25:39.304Z,4.40
2023-03-29T08:28:06.926Z,3.67
2023-03-29T08:30:34.655Z,4.13
2023-03-29T08:33:02.685Z,3.78
2023-03-29T08:35:30.093Z,4.80
2023-03-29T08:37:57.607Z,5.32
2023-03-29T08:40:30.092Z,4.85
2023-03-29T08:42:59.920Z,5.35
2023-03-29T08:45:57.336Z,5.35
2023-03-29T08:48:44.188Z,5.05
2023-03-29T08:51:36.773Z,4.80
2023-03-29T08:54:25.119Z,4.43
2023-03-29T08:57:00.357Z,4.85
2023-03-29T08:59:34.652Z,4.30
2023-03-29T09:02:05.824Z,4.88
2023-03-29T09:04:39.083Z,4.65
2023-03-29T09:07:11.242Z,4.22
2023-03-29T09:09:38.812Z,3.70
2023-03-29T09:12:48.937Z,4.03
2023-03-29T09:15:31.129Z,4.60
2023-03-29T09:18:19.374Z,3.90
2023-03-29T09:21:33.465Z,4.47
2023-03-29T09:24:40.888Z,3.53
2023-03-29T09:27:27.449Z,3.55
2023-03-29T09:30:32.188Z,3.85
2023-03-29T09:33:24.965Z,3.58
2023-03-29T09:36:17.312Z,3.95
2023-03-29T09:38:51.074Z,3.70
2023-03-29T09:41:49.129Z,4.25
2023-03-29T09:44:38.048Z,3.28
2023-03-29T09:48:06.584Z,3.83
2023-03-29T09:50:47.402Z,3.25
2023-03-29T09:53:21.489Z,2.88
2023-03-29T09:55:52.056Z,2.92
2023-03-29T10:00:53.218Z,2.92
2023-03-29T10:03:29.657Z,2.60
2023-03-29T10:06:02.760Z,2.70
2023-03-29T10:08:46.337Z,2.90
2023-03-29T10:11:33.085Z,3.03
2023-03-29T10:14:37.142Z,3.45
2023-03-29T10:17:24.200Z,2.80
2023-03-29T10:20:04.847Z,2.70
2023-03-29T10:22:37.983Z,3.05
2023-03-29T10:25:17.325Z,3.15
2023-03-29T10:27:47.987Z,3.42
2023-03-29T10:30:26.225Z,4.20
2023-03-29T10:33:00.097Z,3.10
2023-03-29T10:35:41.722Z,2.92
2023-03-29T10:38:18.786Z,2.80
2023-03-29T10:40:53.280Z,2.50
2023-03-29T10:43:35.203Z,2.85
2023-03-29T10:46:33.078Z,2.67
2023-03-29T10:49:18.318Z,2.58
2023-03-29T10:51:49.484Z,3.72
2023-03-29T10:54:22.517Z,3.22
2023-03-29T10:56:57.734Z,3.10
2023-03-29T11:00:01.379Z,2.42
2023-03-29T11:03:06.101Z,2.60
2023-03-29T11:06:26.500Z,2.40
2023-03-29T11:09:23.534Z,1.90
2023-03-29T11:12:34.759Z,2.30
2023-03-29T11:16:04.964Z,1.90
2023-03-29T11:19:07.270Z,1.92
2023-03-29T11:22:19.874Z,2.03
2023-03-29T11:25:42.289Z,1.55
2023-03-29T11:28:45.767Z,2.00
2023-03-29T11:31:38.837Z,1.52
2023-03-29T11:35:08.014Z,1.70
2023-03-29T11:38:19.198Z,1.30
2023-03-29T11:41:19.968Z,1.50
2023-03-29T11:44:02.783Z,1.63
2023-03-29T11:47:20.754Z,1.58
2023-03-29T11:50:00.904Z,1.50
2023-03-29T11:52:43.008Z,1.90
2023-03-29T11:55:26.564Z,2.72
2023-03-29T11:58:22.532Z,2.30
2023-03-29T12:01:00.664Z,1.95
2023-03-29T12:04:24.866Z,1.70
2023-03-29T12:07:23.180Z,1.67
2023-03-29T12:10:16.695Z,1.42
2023-03-29T12:13:19.166Z,4.82
2023-03-29T12:15:59.951Z,3.70
2023-03-29T12:18:43.119Z,2.10
2023-03-29T12:21:21.393Z,1.60
2023-03-29T12:23:50.680Z,1.73
2023-03-29T12:26:46.375Z,1.50
2023-03-29T12:30:02.677Z,1.90
2023-03-29T12:33:22.216Z,2.22
2023-03-29T12:36:49.004Z,1.60
2023-03-29T12:39:20.790Z,1.40
2023-03-29T12:41:53.601Z,2.05
2023-03-29T12:44:24.710Z,1.42
2023-03-29T12:46:58.801Z,1.45
2023-03-29T12:49:38.267Z,1.67
2023-03-29T12:52:36.208Z,1.80
2023-03-29T12:55:48.316Z,1.70
2023-03-29T12:58:40.141Z,1.60
2023-03-29T13:01:32.174Z,2.20
2023-03-29T13:04:17.823Z,1.42
2023-03-29T13:07:03.460Z,1.50
2023-03-29T13:09:55.124Z,1.10
2023-03-29T13:12:46.123Z,1.38
2023-03-29T13:15:19.284Z,1.80
2023-03-29T13:18:48.777Z,1.60
2023-03-29T13:22:10.056Z,1.00
2023-03-29T13:25:06.267Z,1.30
2023-03-29T13:28:05.302Z,1.25
2023-03-29T13:31:01.858Z,1.10
2023-03-29T13:34:31.123Z,0.90
2023-03-29T13:37:54.276Z,1.25
2023-03-29T13:40:40.539Z,1.30
2023-03-29T13:43:22.439Z,1.20
2023-03-29T13:45:58.547Z,0.90
2023-03-29T13:48:35.214Z,1.38
2023-03-29T13:51:18.964Z,1.30
2023-03-29T13:55:13.277Z,1.10
2023-03-29T13:57:56.023Z,1.40
2023-03-29T14:00:37.172Z,1.17
2023-03-29T14:03:13.753Z,1.05
2023-03-29T14:05:56.493Z,1.30
2023-03-29T14:08:37.505Z,1.10
2023-03-29T14:11:08.169Z,0.93
2023-03-29T14:13:35.805Z,1.48
2023-03-29T14:16:10.630Z,1.20
2023-03-29T14:18:42.038Z,1.55
2023-03-29T14:21:14.566Z,1.20
2023-03-29T14:23:47.986Z,1.40
2023-03-29T14:26:30.613Z,1.63
2023-03-29T14:29:02.005Z,1.13
2023-03-29T14:31:37.918Z,1.52
2023-03-29T14:34:16.056Z,1.50
2023-03-29T14:36:49.396Z,1.35
2023-03-29T14:39:23.396Z,1.17
2023-03-29T14:41:57.070Z,1.50
2023-03-29T14:44:31.979Z,1.48
2023-03-29T14:47:01.877Z,1.48
2023-03-29T14:49:29.983Z,1.60
2023-03-29T14:51:58.258Z,1.27
2023-03-29T14:54:33.752Z,2.03
2023-03-29T14:57:07.309Z,1.08
2023-03-29T14:59:56.455Z,2.28
2023-03-29T15:02:32.829Z,1.75
2023-03-29T15:05:25.649Z,1.30
2023-03-29T15:07:56.351Z,1.35
2023-03-29T15:10:24.349Z,1.58
2023-03-29T15:12:52.041Z,0.95
2023-03-29T15:15:20.016Z,1.27
2023-03-29T15:17:52.291Z,1.42
2023-03-29T15:20:31.681Z,1.83
2023-03-29T15:23:09.635Z,1.35
2023-03-29T15:25:49.485Z,2.10
2023-03-29T15:28:55.886Z,1.52
2023-03-29T15:31:42.039Z,1.50
2023-03-29T15:34:25.146Z,1.60
2023-03-29T15:36:54.067Z,1.50
2023-03-29T15:39:21.627Z,1.48
2023-03-29T15:41:52.955Z,1.27
2023-03-29T15:44:43.736Z,1.50
2023-03-29T15:47:12.705Z,1.38
2023-03-29T15:49:40.619Z,1.33
2023-03-29T15:52:08.128Z,2.00
2023-03-29T15:54:37.274Z,2.80
2023-03-29T15:57:12.586Z,1.95
2023-03-29T15:59:40.254Z,1.50
2023-03-29T16:02:12.242Z,1.95
2023-03-29T16:04:39.700Z,2.40
2023-03-29T16:07:17.666Z,1.75
2023-03-29T16:09:46.320Z,2.00
2023-03-29T16:12:16.395Z,1.92
2023-03-29T16:14:43.808Z,1.67
2023-03-29T16:17:11.684Z,2.08
2023-03-29T16:19:39.234Z,1.90
2023-03-29T16:22:07.665Z,1.92
2023-03-29T16:24:36.259Z,2.05
2023-03-29T16:27:04.145Z,2.28
2023-03-29T16:29:32.005Z,2.63
2023-03-29T16:32:00.231Z,2.38
2023-03-29T16:34:27.873Z,2.50
2023-03-29T16:36:55.350Z,2.30
2023-03-29T16:39:22.796Z,2.30
2023-03-29T16:41:50.553Z,2.50
2023-03-29T16:44:23.570Z,2.38
2023-03-29T16:46:54.451Z,2.25
2023-03-29T16:51:49.909Z,2.47
2023-03-29T16:54:18.993Z,2.50
2023-03-29T16:56:47.238Z,2.95
2023-03-29T16:59:15.409Z,1.98
2023-03-29T17:01:43.222Z,2.85
2023-03-29T17:04:11.644Z,2.42
2023-03-29T17:06:39.228Z,2.20
2023-03-29T17:09:07.427Z,2.70
2023-03-29T17:11:35.026Z,2.63
2023-03-29T17:14:02.956Z,2.60
2023-03-29T17:16:30.549Z,2.47
2023-03-29T17:19:01.456Z,2.13
2023-03-29T17:21:29.943Z,2.65
2023-03-29T17:23:57.556Z,2.58
2023-03-29T17:26:25.052Z,2.70
2023-03-29T17:28:52.651Z,2.58
2023-03-29T17:31:20.130Z,2.20
2023-03-29T17:33:47.741Z,2.53
2023-03-29T17:36:15.944Z,3.10
2023-03-29T17:38:43.406Z,2.03
2023-03-29T17:41:11.209Z,2.28
2023-03-29T17:43:38.627Z,2.13
2023-03-29T17:46:06.612Z,3.35
2023-03-29T17:48:34.686Z,2.60
2023-03-29T17:51:02.272Z,2.85
2023-03-29T17:53:29.976Z,2.95
2023-03-29T17:55:57.405Z,3.40
2023-03-29T17:58:24.901Z,3.50
2023-03-29T18:00:52.363Z,2.72
2023-03-29T18:03:20.094Z,2.80
2023-03-29T18:05:48.066Z,3.08
2023-03-29T18:08:16.902Z,3.05
2023-03-29T18:10:44.378Z,4.05
2023-03-29T18:13:14.027Z,3.97
2023-03-29T18:15:44.125Z,4.00
2023-03-29T18:18:11.705Z,4.15
2023-03-29T18:20:39.136Z,4.10
2023-03-29T18:23:06.629Z,4.60
2023-03-29T18:25:34.170Z,3.72
2023-03-29T18:28:01.552Z,4.38
2023-03-29T18:30:28.984Z,5.00
2023-03-29T18:32:56.542Z,3.78
2023-03-29T18:35:24.050Z,4.13
2023-03-29T18:37:52.299Z,3.92
2023-03-29T18:40:24.757Z,3.78
2023-03-29T18:42:52.828Z,4.47
2023-03-29T18:45:21.454Z,3.60
2023-03-29T18:47:50.960Z,4.03
2023-03-29T18:50:18.888Z,3.83
2023-03-29T18:52:46.281Z,3.95
2023-03-29T18:55:13.668Z,4.03
2023-03-29T18:57:41.529Z,4.10
2023-03-29T19:00:13.342Z,4.72
2023-03-29T19:02:42.025Z,3.88
2023-03-29T19:05:10.901Z,4.03
2023-03-29T19:07:38.856Z,4.13
2023-03-29T19:10:08.464Z,4.63
2023-03-29T19:12:36.398Z,4.57
2023-03-29T19:15:04.458Z,3.92
2023-03-29T19:17:32.215Z,3.95
2023-03-29T19:19:59.731Z,3.55
2023-03-29T19:22:27.228Z,4.30
2023-03-29T19:24:54.609Z,3.95
2023-03-29T19:27:22.124Z,3.90
2023-03-29T19:29:49.745Z,4.30
2023-03-29T19:32:17.165Z,4.13
2023-03-29T19:34:44.559Z,3.42
2023-03-29T19:37:12.166Z,3.08
2023-03-29T19:39:41.128Z,3.95
2023-03-29T19:42:08.591Z,3.20
2023-03-29T19:44:38.330Z,3.17
2023-03-29T19:47:06.668Z,3.72
2023-03-29T19:49:36.704Z,3.20
2023-03-29T19:52:05.078Z,3.55
2023-03-29T19:54:32.927Z,3.80
2023-03-29T19:57:00.392Z,3.13
2023-03-29T19:59:28.170Z,4.18
2023-03-29T20:01:57.007Z,3.25
2023-03-29T20:04:25.320Z,3.08
2023-03-29T20:06:52.742Z,3.10
2023-03-29T20:09:20.315Z,4.05
2023-03-29T20:11:47.806Z,3.33
2023-03-29T20:14:15.599Z,3.88
2023-03-29T20:16:44.178Z,3.78
2023-03-29T20:19:14.171Z,4.28
2023-03-29T20:21:41.688Z,4.25
2023-03-29T20:24:09.845Z,4.03
2023-03-29T20:26:37.413Z,5.00
2023-03-29T20:29:04.843Z,4.43
2023-03-29T20:31:32.307Z,3.85
2023-03-29T20:33:59.944Z,4.40
2023-03-29T20:36:30.876Z,4.32
2023-03-29T20:38:59.378Z,4.68
2023-03-29T20:41:27.010Z,4.07
2023-03-29T20:44:00.013Z,3.30
2023-03-29T20:46:33.558Z,4.20
2023-03-29T20:49:09.032Z,4.72
2023-03-29T20:51:38.654Z,4.20
2023-03-29T20:54:07.788Z,3.97
2023-03-29T20:56:42.371Z,3.65
2023-03-29T20:59:10.954Z,4.22
2023-03-29T21:01:42.498Z,5.05
2023-03-29T21:04:11.110Z,4.53
2023-03-29T21:06:41.495Z,4.82
2023-03-29T21:09:08.923Z,3.95
2023-03-29T21:11:36.335Z,4.28
2023-03-29T21:14:04.249Z,3.42
2023-03-29T21:16:34.040Z,4.43
2023-03-29T21:19:01.606Z,4.10
2023-03-29T21:21:30.162Z,3.40
2023-03-29T21:23:57.565Z,4.10
2023-03-29T21:26:24.939Z,3.75
2023-03-29T21:28:52.591Z,4.78
2023-03-29T21:31:20.156Z,3.50
2023-03-29T21:33:47.599Z,4.18
2023-03-29T21:36:15.185Z,4.18
2023-03-29T21:38:42.672Z,3.85
2023-03-29T21:41:12.162Z,3.42
2023-03-29T21:43:40.146Z,3.40
2023-03-29T21:46:08.573Z,4.63
2023-03-29T21:48:36.666Z,3.67
2023-03-29T21:51:06.591Z,4.45
2023-03-29T21:53:34.629Z,4.30
2023-03-29T21:56:02.675Z,4.05
2023-03-29T21:58:30.171Z,3.53
2023-03-29T22:00:57.622Z,3.80
2023-03-29T22:03:25.105Z,3.50
2023-03-29T22:06:03.069Z,4.38
2023-03-29T22:08:31.456Z,4.20
2023-03-29T22:10:58.862Z,3.17
2023-03-29T22:13:28.987Z,3.45
2023-03-29T22:16:03.866Z,3.45
2023-03-29T22:18:44.118Z,3.38
2023-03-29T22:21:22.797Z,3.85
2023-03-29T22:23:56.084Z,3.58
2023-03-29T22:26:29.978Z,3.28
2023-03-29T22:28:59.887Z,2.70
2023-03-29T22:31:29.521Z,3.60
2023-03-29T22:33:58.500Z,3.67
2023-03-29T22:36:31.155Z,2.88
2023-03-29T22:38:59.136Z,3.38
2023-03-29T22:41:28.303Z,3.28
2023-03-29T22:43:59.524Z,3.30
2023-03-29T22:46:27.365Z,3.22
2023-03-29T22:48:55.041Z,3.50
2023-03-29T22:51:22.505Z,3.10
2023-03-29T22:53:50.046Z,3.38
2023-03-29T22:56:18.459Z,3.20
2023-03-29T22:58:46.987Z,2.85
2023-03-29T23:01:14.491Z,3.75
2023-03-29T23:03:42.032Z,3.35
2023-03-29T23:06:09.512Z,3.53
2023-03-29T23:08:37.230Z,3.38
2023-03-29T23:11:05.545Z,3.60
2023-03-29T23:13:33.721Z,3.35
2023-03-29T23:16:02.530Z,3.20
2023-03-29T23:18:35.007Z,3.47
2023-03-29T23:21:05.276Z,3.20
2023-03-29T23:23:33.703Z,3.67
2023-03-29T23:26:02.566Z,2.95
2023-03-29T23:28:30.789Z,3.35
2023-03-29T23:31:11.613Z,3.40
2023-03-29T23:33:43.199Z,4.20
2023-03-29T23:36:16.855Z,3.35
2023-03-29T23:38:46.988Z,3.30
2023-03-29T23:41:17.798Z,3.35
2023-03-29T23:43:47.281Z,3.90
2023-03-29T23:46:19.042Z,3.05
2023-03-29T23:48:50.871Z,3.03
2023-03-29T23:51:23.366Z,3.33
2023-03-29T23:53:51.484Z,3.13
